METAR Data

Data at: 1159 UTC 24 May 2022

METAR for:KFMH (Otis ANGB, MA, US)
Text:KFMH 241150Z 06012KT 10SM FEW110 12/06 A3031
Temperature: 12.0°C ( 54°F)
Dewpoint: 6.0°C ( 43°F) [RH = 67%]
Pressure (altimeter):30.31 inches Hg (1026.5 mb)
Winds:from the ENE (60 degrees) at 14 MPH (12 knots; 6.2 m/s)
Visibility:10 or more sm (16+ km)
Ceiling:at least 12,000 feet AGL
Clouds: few clouds at 11000 feet AGL